Time;durP1;ratioP1;P1;durP2;ratioP2;P2;SDS_P1;SDS_P2;PMS_P1;PMS_P2;Temp;Humidity;BMP_temperature;BMP_pressure;BME280_temperature;BME280_humidity;BME280_pressure;Samples;Min_cycle;Max_cycle;Signal;HPM_P1;HPM_P2
2022/12/23 00:02:11;;;;;;;;;;;;;;;28.34;44.01;96780.48;612001;232;67235;-70
2022/12/23 00:04:38;;;;;;;;;;;;;;;28.35;44.33;96794.80;612024;232;66717;-70
2022/12/23 00:07:06;;;;;;;;;;;;;;;28.34;43.20;96782.39;612036;232;64905;-71
2022/12/23 00:09:33;;;;;;;;;;;;;;;28.33;45.36;96786.22;612192;232;66553;-70
2022/12/23 00:15:04;;;;;;;;;;;;;;;28.30;44.25;96787.66;612071;232;63103;-70
2022/12/23 00:17:36;;;;;;;;;;;;;;;28.31;43.51;96783.05;612034;232;67402;-70
2022/12/23 00:20:04;;;;;;;;;;;;;;;28.30;44.10;96782.25;612137;232;64911;-70
2022/12/23 00:25:17;;;;;;;;;;;;;;;28.27;43.51;96785.61;612162;232;64694;-70
2022/12/23 00:28:00;;;;;;;;;;;;;;;28.26;43.60;96780.52;612141;232;64813;-70
2022/12/23 00:30:16;;;;;;;;;;;;;;;28.27;43.17;96787.52;611641;232;66039;-70
2022/12/23 00:32:44;;;;;;;;;;;;;;;28.26;44.19;96784.00;612116;232;67222;-70
2022/12/23 00:35:11;;;;;;;;;;;;;;;28.25;44.81;96787.05;612052;232;67079;-70
2022/12/23 00:37:39;;;;;;;;;;;;;;;28.24;43.61;96782.77;611935;232;65057;-70
2022/12/23 00:42:53;;;;;;;;;;;;;;;28.21;43.22;96778.81;612122;232;67004;-71
2022/12/23 00:45:21;;;;;;;;;;;;;;;28.22;44.01;96776.89;612162;232;65032;-71
2022/12/23 00:50:38;;;;;;;;;;;;;;;28.20;44.14;96781.82;612151;232;67098;-70
2022/12/23 00:53:05;;;;;;;;;;;;;;;28.19;43.56;96769.44;612143;232;65089;-70
2022/12/23 00:55:33;;;;;;;;;;;;;;;28.18;44.56;96770.53;612191;232;67404;-70
2022/12/23 00:58:00;;;;;;;;;;;;;;;28.17;44.42;96775.16;611932;232;66833;-70
2022/12/23 01:06:01;;;;;;;;;;;;;;;28.14;42.94;96766.91;612148;232;67549;-70
2022/12/23 01:08:29;;;;;;;;;;;;;;;28.13;45.05;96755.31;612151;232;65201;-70
2022/12/23 01:10:56;;;;;;;;;;;;;;;28.14;44.63;96756.11;612173;232;67249;-70
2022/12/23 01:13:23;;;;;;;;;;;;;;;28.11;44.01;96752.14;612114;232;67048;-70
2022/12/23 01:15:51;;;;;;;;;;;;;;;28.11;44.54;96752.92;612106;232;62920;-70
2022/12/23 01:18:18;;;;;;;;;;;;;;;28.11;44.37;96746.73;611958;232;64981;-70
2022/12/23 01:20:46;;;;;;;;;;;;;;;28.08;44.36;96747.39;612139;232;65652;-70
2022/12/23 01:23:13;;;;;;;;;;;;;;;28.07;44.39;96734.98;612151;232;65042;-70
2022/12/23 01:25:41;;;;;;;;;;;;;;;28.07;44.53;96733.09;612177;232;66904;-70
2022/12/23 01:28:08;;;;;;;;;;;;;;;28.06;43.75;96730.70;611858;232;67049;-70
2022/12/23 01:30:37;;;;;;;;;;;;;;;28.05;42.89;96735.31;611228;232;65031;-70
2022/12/23 01:33:05;;;;;;;;;;;;;;;28.03;45.00;96734.84;611257;232;67291;-70
2022/12/23 01:35:32;;;;;;;;;;;;;;;28.03;44.55;96726.73;611090;232;67020;-70
2022/12/23 01:37:59;;;;;;;;;;;;;;;28.02;43.87;96730.57;611168;232;65033;-70
2022/12/23 01:40:27;;;;;;;;;;;;;;;28.03;44.37;96731.36;611087;232;67336;-70
2022/12/23 01:42:54;;;;;;;;;;;;;;;28.01;45.09;96742.47;611118;232;67056;-70
2022/12/23 01:45:27;;;;;;;;;;;;;;;28.00;44.56;96727.39;611246;232;62900;-70
2022/12/23 01:47:56;;;;;;;;;;;;;;;28.00;43.98;96713.89;611271;232;67998;-70
2022/12/23 01:50:34;;;;;;;;;;;;;;;27.98;44.40;96720.72;611326;230;64830;-70
2022/12/23 01:53:15;;;;;;;;;;;;;;;27.97;45.19;96719.94;611296;232;63810;-70
2022/12/23 01:55:44;;;;;;;;;;;;;;;27.96;44.33;96712.94;611228;232;67630;-70
2022/12/23 01:58:13;;;;;;;;;;;;;;;27.96;45.95;96712.15;610946;231;67073;-70
2022/12/23 02:04:00;;;;;;;;;;;;;;;27.93;46.05;96708.18;611245;232;67149;-70
2022/12/23 02:11:18;;;;;;;;;;;;;;;27.87;46.91;96694.06;611277;232;67419;-70
2022/12/23 02:16:40;;;;;;;;;;;;;;;27.85;44.66;96698.20;611230;232;65336;-70
2022/12/23 02:19:12;;;;;;;;;;;;;;;27.82;45.32;96696.94;610953;229;67280;-70
2022/12/23 02:21:47;;;;;;;;;;;;;;;27.81;45.49;96699.98;611201;232;65266;-70
2022/12/23 02:24:22;;;;;;;;;;;;;;;27.80;45.16;96703.78;611215;232;65335;-70
2022/12/23 02:27:08;;;;;;;;;;;;;;;27.79;45.67;96697.56;611304;232;67220;-70
2022/12/23 02:29:40;;;;;;;;;;;;;;;27.78;45.14;96697.90;612025;232;67080;-70
2022/12/23 02:32:09;;;;;;;;;;;;;;;27.77;45.10;96685.50;612132;232;65240;-71
2022/12/23 02:34:50;;;;;;;;;;;;;;;27.76;44.58;96683.92;611893;231;67265;-70
2022/12/23 02:37:36;;;;;;;;;;;;;;;27.74;44.36;96684.23;611773;232;65032;-71
2022/12/23 02:40:05;;;;;;;;;;;;;;;27.74;44.46;96678.05;612136;232;65274;-71
2022/12/23 02:42:34;;;;;;;;;;;;;;;27.72;44.39;96672.17;612136;232;66890;-70
2022/12/23 02:45:15;;;;;;;;;;;;;;;27.71;43.96;96670.59;612147;232;67076;-71
2022/12/23 02:47:43;;;;;;;;;;;;;;;27.71;44.42;96671.38;611965;232;65263;-66
2022/12/23 02:50:12;;;;;;;;;;;;;;;27.70;44.76;96671.72;612076;232;67804;-66
2022/12/23 02:52:41;;;;;;;;;;;;;;;27.68;44.65;96670.13;612139;232;67061;-66
2022/12/23 02:55:10;;;;;;;;;;;;;;;27.67;45.29;96668.55;612116;232;65072;-66
2022/12/23 02:57:39;;;;;;;;;;;;;;;27.66;44.34;96669.67;611873;232;65188;-66
2022/12/23 03:00:07;;;;;;;;;;;;;;;27.65;44.34;96672.69;612149;232;64933;-66
2022/12/23 03:02:36;;;;;;;;;;;;;;;27.64;45.75;96677.30;612140;232;65126;-70
2022/12/23 03:05:04;;;;;;;;;;;;;;;27.63;44.74;96675.69;612166;232;67225;-66
2022/12/23 03:07:36;;;;;;;;;;;;;;;27.62;46.82;96673.33;612124;232;67048;-66
2022/12/23 03:10:05;;;;;;;;;;;;;;;27.61;44.94;96671.73;612027;231;65019;-66
2022/12/23 03:12:40;;;;;;;;;;;;;;;27.59;44.34;96665.88;611905;231;67256;-66
2022/12/23 03:15:12;;;;;;;;;;;;;;;27.58;43.88;96670.49;612145;232;66965;-67
2022/12/23 03:17:57;;;;;;;;;;;;;;;27.58;45.63;96667.80;611930;231;64864;-67
2022/12/23 03:20:29;;;;;;;;;;;;;;;27.57;44.76;96662.70;611965;232;66963;-67
2022/12/23 03:23:13;;;;;;;;;;;;;;;27.55;44.50;96659.53;611988;231;66880;-67
2022/12/23 03:25:46;;;;;;;;;;;;;;;27.54;44.25;96669.54;611983;231;62990;-66
2022/12/23 03:28:15;;;;;;;;;;;;;;;27.53;45.55;96669.84;611499;231;65141;-66
2022/12/23 03:30:44;;;;;;;;;;;;;;;27.51;44.79;96685.59;611272;232;64698;-66
2022/12/23 03:33:19;;;;;;;;;;;;;;;27.50;44.66;96684.80;611189;232;63662;-66
2022/12/23 03:35:51;;;;;;;;;;;;;;;27.49;44.74;96682.41;610995;232;67082;-66
2022/12/23 03:38:19;;;;;;;;;;;;;;;27.48;44.90;96676.23;610975;232;67338;-66
2022/12/23 03:40:48;;;;;;;;;;;;;;;27.47;45.08;96674.62;610960;232;65037;-66
2022/12/23 03:43:16;;;;;;;;;;;;;;;27.45;46.15;96669.56;611259;232;67528;-65
2022/12/23 03:45:45;;;;;;;;;;;;;;;27.44;44.82;96670.66;611264;232;67029;-66
2022/12/23 03:48:15;;;;;;;;;;;;;;;27.43;44.49;96671.79;611180;231;62958;-66
2022/12/23 03:50:42;;;;;;;;;;;;;;;27.43;44.63;96676.39;610537;232;64867;-66
2022/12/23 03:53:11;;;;;;;;;;;;;;;27.42;44.94;96677.52;611243;232;64933;-66
2022/12/23 03:55:40;;;;;;;;;;;;;;;27.41;45.22;96665.91;611250;232;65087;-71
2022/12/23 03:58:18;;;;;;;;;;;;;;;27.41;44.20;96667.82;610971;232;67081;-71
2022/12/23 04:00:50;;;;;;;;;;;;;;;27.40;44.55;96674.34;610995;232;65082;-71
2022/12/23 04:03:19;;;;;;;;;;;;;;;27.37;44.47;96670.37;611103;231;65128;-71
2022/12/23 04:05:48;;;;;;;;;;;;;;;27.37;45.96;96674.98;610432;232;67479;-71
2022/12/23 04:08:17;;;;;;;;;;;;;;;27.34;44.08;96675.63;611120;232;67014;-71
2022/12/23 04:10:45;;;;;;;;;;;;;;;27.33;44.18;96672.12;611228;232;63023;-71
2022/12/23 04:13:13;;;;;;;;;;;;;;;27.32;44.56;96672.45;611267;232;67254;-71
2022/12/23 04:15:41;;;;;;;;;;;;;;;27.31;45.44;96671.67;611237;232;64726;-71
2022/12/23 04:18:09;;;;;;;;;;;;;;;27.30;45.90;96671.98;611241;232;65105;-71
2022/12/23 04:20:37;;;;;;;;;;;;;;;27.29;45.21;96675.80;611225;232;66996;-71
2022/12/23 04:23:05;;;;;;;;;;;;;;;27.28;46.22;96671.50;611270;232;66860;-71
2022/12/23 04:25:32;;;;;;;;;;;;;;;27.26;44.90;96671.05;611280;232;65063;-71
2022/12/23 04:28:00;;;;;;;;;;;;;;;27.24;45.69;96665.95;611215;232;66952;-71
2022/12/23 04:30:27;;;;;;;;;;;;;;;27.23;45.26;96669.78;611238;232;66808;-71
2022/12/23 04:32:55;;;;;;;;;;;;;;;27.23;44.91;96669.78;611246;232;63864;-71
2022/12/23 04:35:22;;;;;;;;;;;;;;;27.21;45.10;96667.39;611223;232;66950;-71
2022/12/23 04:37:50;;;;;;;;;;;;;;;27.21;45.90;96672.78;611301;232;66829;-71
2022/12/23 04:40:17;;;;;;;;;;;;;;;27.20;44.68;96673.09;611244;232;65056;-72
2022/12/23 04:42:45;;;;;;;;;;;;;;;27.18;45.57;96670.73;611236;232;66952;-71
2022/12/23 04:45:12;;;;;;;;;;;;;;;27.15;45.96;96674.03;611242;232;66837;-71
2022/12/23 04:47:40;;;;;;;;;;;;;;;27.16;45.88;96670.25;611212;232;65124;-65
2022/12/23 04:50:08;;;;;;;;;;;;;;;27.15;45.34;96681.34;611251;232;67145;-66
2022/12/23 04:52:35;;;;;;;;;;;;;;;27.13;45.05;96678.95;611211;232;67402;-66
2022/12/23 04:55:03;;;;;;;;;;;;;;;27.12;44.72;96679.26;611248;232;65098;-65
2022/12/23 04:57:30;;;;;;;;;;;;;;;27.12;44.83;96677.37;610928;232;67301;-65
2022/12/23 04:59:58;;;;;;;;;;;;;;;27.10;44.89;96682.29;611222;232;64854;-65
2022/12/23 05:02:25;;;;;;;;;;;;;;;27.10;45.10;96686.90;611247;232;62997;-66
2022/12/23 05:04:53;;;;;;;;;;;;;;;27.09;46.35;96685.30;611218;232;64980;-66
2022/12/23 05:07:20;;;;;;;;;;;;;;;27.08;45.44;96687.20;611235;232;64937;-65
2022/12/23 05:09:47;;;;;;;;;;;;;;;27.07;46.48;96692.94;611254;232;62877;-65
2022/12/23 05:12:15;;;;;;;;;;;;;;;27.04;44.42;96683.57;611202;232;67001;-66
2022/12/23 05:14:42;;;;;;;;;;;;;;;27.04;45.51;96682.75;611259;232;67122;-66
2022/12/23 05:17:10;;;;;;;;;;;;;;;27.02;45.94;96680.39;611244;232;65056;-66
2022/12/23 05:19:37;;;;;;;;;;;;;;;27.01;45.61;96685.00;611204;232;67399;-66
2022/12/23 05:22:05;;;;;;;;;;;;;;;27.01;46.25;96684.21;611238;232;66995;-66
2022/12/23 05:24:32;;;;;;;;;;;;;;;26.99;46.60;96686.42;611259;232;65078;-66
2022/12/23 05:27:00;;;;;;;;;;;;;;;26.98;46.68;96691.03;611247;232;64904;-66
2022/12/23 05:29:27;;;;;;;;;;;;;;;26.99;45.83;96694.52;611254;232;67187;-66
2022/12/23 05:31:55;;;;;;;;;;;;;;;26.98;46.96;96695.61;611243;232;65068;-66
2022/12/23 05:34:22;;;;;;;;;;;;;;;26.96;44.99;96695.94;611292;232;67246;-65
2022/12/23 05:36:50;;;;;;;;;;;;;;;26.96;45.62;96695.16;610967;232;67103;-66
2022/12/23 05:39:17;;;;;;;;;;;;;;;26.96;45.93;96698.64;611223;232;62884;-66
2022/12/23 05:41:45;;;;;;;;;;;;;;;26.96;46.37;96704.03;611265;232;66991;-66
2022/12/23 05:44:12;;;;;;;;;;;;;;;26.96;47.65;96708.64;611158;232;66968;-66
2022/12/23 05:46:39;;;;;;;;;;;;;;;26.95;46.44;96707.03;611248;232;65112;-66
2022/12/23 05:49:07;;;;;;;;;;;;;;;26.95;46.17;96709.73;611269;232;67189;-66
2022/12/23 05:51:35;;;;;;;;;;;;;;;26.95;46.18;96698.94;611276;232;67003;-66
2022/12/23 05:54:02;;;;;;;;;;;;;;;26.94;45.08;96708.16;611250;232;62674;-66
2022/12/23 05:56:30;;;;;;;;;;;;;;;26.95;45.14;96704.34;611216;232;67231;-66
2022/12/23 05:58:57;;;;;;;;;;;;;;;26.94;45.61;96702.77;611252;232;66981;-66
2022/12/23 06:01:26;;;;;;;;;;;;;;;26.93;44.90;96704.67;611316;231;46309;-66
2022/12/23 06:03:54;;;;;;;;;;;;;;;26.94;46.96;96705.45;611316;232;67488;-66
2022/12/23 06:06:21;;;;;;;;;;;;;;;26.94;46.79;96705.45;611250;232;68116;-65
2022/12/23 06:08:49;;;;;;;;;;;;;;;26.94;46.68;96705.45;611162;232;65023;-65
2022/12/23 06:11:16;;;;;;;;;;;;;;;26.94;47.22;96703.55;611218;232;65029;-65
2022/12/23 06:13:44;;;;;;;;;;;;;;;26.93;47.55;96699.27;611224;230;67214;-65
2022/12/23 06:16:11;;;;;;;;;;;;;;;26.93;46.82;96703.88;611240;232;63046;-65
2022/12/23 06:18:42;;;;;;;;;;;;;;;26.94;47.71;96700.85;611280;232;67213;-65
2022/12/23 06:21:09;;;;;;;;;;;;;;;26.95;48.26;96702.42;611225;232;67113;-65
2022/12/23 06:23:37;;;;;;;;;;;;;;;26.96;48.15;96701.34;611220;232;64986;-65
2022/12/23 06:26:04;;;;;;;;;;;;;;;26.95;48.00;96702.42;611233;232;66896;-65
2022/12/23 06:28:32;;;;;;;;;;;;;;;26.96;48.03;96705.94;611202;232;67014;-65
2022/12/23 06:30:59;;;;;;;;;;;;;;;26.97;47.83;96704.82;606414;232;63842;-66
2022/12/23 06:33:27;;;;;;;;;;;;;;;26.98;47.44;96706.39;611244;232;67491;-65
2022/12/23 06:35:54;;;;;;;;;;;;;;;26.98;47.15;96709.09;611227;232;67076;-66
2022/12/23 06:38:22;;;;;;;;;;;;;;;26.99;46.87;96710.70;611219;232;64957;-66
2022/12/23 06:40:50;;;;;;;;;;;;;;;26.99;47.27;96714.18;611228;232;64733;-66
2022/12/23 06:43:17;;;;;;;;;;;;;;;27.00;48.97;96717.66;611277;232;67104;-66
2022/12/23 06:45:48;;;;;;;;;;;;;;;27.00;47.16;96718.45;611262;232;65108;-65
2022/12/23 06:48:16;;;;;;;;;;;;;;;27.00;46.55;96720.36;611218;232;67278;-65
2022/12/23 06:50:44;;;;;;;;;;;;;;;27.02;45.98;96718.15;611191;232;67219;-65
2022/12/23 06:53:12;;;;;;;;;;;;;;;27.02;47.22;96715.45;611184;232;65079;-65
2022/12/23 06:55:40;;;;;;;;;;;;;;;27.03;46.00;96713.55;611064;232;67246;-65
2022/12/23 06:58:07;;;;;;;;;;;;;;;27.03;46.37;96711.63;611273;232;67198;-66
2022/12/23 07:00:34;;;;;;;;;;;;;;;27.04;46.33;96713.23;610257;232;63080;-70
2022/12/23 07:03:02;;;;;;;;;;;;;;;27.05;47.78;96711.33;611166;232;64858;-68
2022/12/23 07:05:29;;;;;;;;;;;;;;;27.06;45.98;96707.51;611045;232;64871;-69
2022/12/23 07:07:57;;;;;;;;;;;;;;;27.09;47.29;96709.56;611044;232;64958;-68
2022/12/23 07:10:25;;;;;;;;;;;;;;;27.09;47.25;96717.66;610811;232;67227;-70
2022/12/23 07:12:52;;;;;;;;;;;;;;;27.11;46.82;96718.93;611002;232;66817;-72
2022/12/23 07:15:20;;;;;;;;;;;;;;;27.12;45.38;96717.84;610337;232;65211;-70
2022/12/23 07:17:47;;;;;;;;;;;;;;;27.13;46.24;96714.02;610380;232;65006;-72
2022/12/23 07:20:15;;;;;;;;;;;;;;;27.16;45.99;96724.20;610393;232;66319;-71
2022/12/23 07:22:43;;;;;;;;;;;;;;;27.19;47.50;96718.16;610405;232;63038;-72
2022/12/23 07:25:10;;;;;;;;;;;;;;;27.19;47.11;96723.56;610421;232;67266;-71
2022/12/23 07:27:38;;;;;;;;;;;;;;;27.22;47.23;96714.03;610405;232;67068;-70
2022/12/23 07:30:06;;;;;;;;;;;;;;;27.24;47.64;96722.61;610362;232;65072;-70
2022/12/23 07:32:34;;;;;;;;;;;;;;;27.25;47.13;96718.79;610401;232;65124;-71
2022/12/23 07:35:05;;;;;;;;;;;;;;;27.27;47.14;96724.67;610230;232;64774;-71
2022/12/23 07:37:34;;;;;;;;;;;;;;;27.29;46.35;96727.06;609914;232;47150;-74
2022/12/23 07:40:02;;;;;;;;;;;;;;;27.27;43.32;96729.27;605007;232;65764;-73
2022/12/23 07:42:29;;;;;;;;;;;;;;;27.26;45.59;96730.40;610379;232;66965;-73
2022/12/23 07:44:57;;;;;;;;;;;;;;;27.26;46.12;96733.09;610308;232;64909;-73
2022/12/23 07:47:24;;;;;;;;;;;;;;;27.26;45.54;96733.09;610464;232;67640;-73
2022/12/23 07:49:51;;;;;;;;;;;;;;;27.27;45.31;96729.27;610433;232;67075;-71
2022/12/23 07:52:19;;;;;;;;;;;;;;;27.28;44.85;96737.03;610410;232;63158;-77
2022/12/23 07:54:48;;;;;;;;;;;;;;;27.25;40.70;96734.19;610160;232;64702;-70
2022/12/23 07:57:15;;;;;;;;;;;;;;;27.29;44.85;96733.24;609695;232;64784;-70
2022/12/23 07:59:43;;;;;;;;;;;;;;;27.31;45.75;96741.00;610368;232;65086;-69
2022/12/23 08:02:13;;;;;;;;;;;;;;;27.33;43.92;96738.78;610473;232;67146;-70
2022/12/23 08:04:40;;;;;;;;;;;;;;;27.37;45.74;96745.94;609953;232;67084;-73
2022/12/23 08:07:07;;;;;;;;;;;;;;;27.37;40.77;96743.23;609412;232;62899;-75
2022/12/23 08:09:35;;;;;;;;;;;;;;;27.35;42.92;96750.84;610412;232;65023;-71
2022/12/23 08:12:02;;;;;;;;;;;;;;;27.37;39.10;96747.84;610312;232;66928;-72
2022/12/23 08:14:29;;;;;;;;;;;;;;;27.44;43.14;96748.14;610472;232;64868;-70
2022/12/23 08:16:58;;;;;;;;;;;;;;;27.48;42.41;96756.41;610408;232;67234;-72
2022/12/23 08:19:26;;;;;;;;;;;;;;;27.51;42.38;96755.77;610354;232;64980;-71
2022/12/23 08:21:53;;;;;;;;;;;;;;;27.54;39.99;96758.61;610450;232;62950;-70
2022/12/23 08:24:21;;;;;;;;;;;;;;;27.58;38.77;96761.45;610393;232;67290;-72
2022/12/23 08:26:48;;;;;;;;;;;;;;;27.61;38.98;96756.23;604945;232;66365;-67
2022/12/23 08:29:16;;;;;;;;;;;;;;;27.65;38.55;96754.45;610426;232;65095;-69
2022/12/23 08:31:43;;;;;;;;;;;;;;;27.68;38.06;96763.82;610441;232;64739;-70
2022/12/23 08:34:11;;;;;;;;;;;;;;;27.70;38.25;96758.11;610363;232;64927;-70
2022/12/23 08:36:38;;;;;;;;;;;;;;;27.73;37.79;96757.47;610414;232;62885;-74
2022/12/23 08:39:07;;;;;;;;;;;;;;;27.74;38.84;96754.44;610397;232;66900;-71
2022/12/23 08:41:39;;;;;;;;;;;;;;;27.76;38.97;96751.42;610449;232;66928;-70
2022/12/23 08:44:07;;;;;;;;;;;;;;;27.78;38.82;96754.60;610414;232;64893;-69
2022/12/23 08:46:35;;;;;;;;;;;;;;;27.79;40.03;96750.78;610392;232;66897;-70
2022/12/23 08:49:04;;;;;;;;;;;;;;;27.81;41.88;96748.59;610349;232;64913;-69
2022/12/23 08:51:31;;;;;;;;;;;;;;;27.80;41.87;96738.87;610350;232;65027;-67
2022/12/23 08:53:59;;;;;;;;;;;;;;;27.80;42.84;96733.48;610378;232;67019;-70
2022/12/23 08:56:28;;;;;;;;;;;;;;;27.79;43.60;96729.17;610403;232;64975;-69
2022/12/23 08:58:56;;;;;;;;;;;;;;;27.79;43.79;96731.87;610352;232;65090;-69
2022/12/23 09:01:24;;;;;;;;;;;;;;;27.79;43.50;96721.86;610358;232;67450;-69
2022/12/23 09:03:52;;;;;;;;;;;;;;;27.79;42.79;96724.56;610396;232;67025;-67
2022/12/23 09:06:21;;;;;;;;;;;;;;;27.81;44.53;96713.48;610471;232;65435;-68
2022/12/23 09:08:51;;;;;;;;;;;;;;;27.82;42.69;96715.05;610353;232;67200;-67
2022/12/23 09:11:20;;;;;;;;;;;;;;;27.84;45.65;96718.23;610410;232;67031;-68
2022/12/23 09:13:48;;;;;;;;;;;;;;;27.82;45.51;96710.44;610465;232;62940;-68
2022/12/23 09:16:16;;;;;;;;;;;;;;;27.84;41.69;96716.32;610409;232;67310;-68
2022/12/23 09:18:43;;;;;;;;;;;;;;;27.87;40.21;96712.19;610286;232;67150;-68
2022/12/23 09:21:15;;;;;;;;;;;;;;;27.88;45.52;96708.36;610477;232;65069;-70
2022/12/23 09:23:42;;;;;;;;;;;;;;;27.85;39.51;96707.09;610340;232;67235;-68
2022/12/23 09:26:10;;;;;;;;;;;;;;;27.85;42.44;96711.70;610400;232;64825;-65
2022/12/23 09:28:39;;;;;;;;;;;;;;;27.85;44.38;96711.70;610380;232;63009;-67
2022/12/23 09:31:07;;;;;;;;;;;;;;;27.85;43.76;96714.41;610352;232;64789;-65
2022/12/23 09:33:35;;;;;;;;;;;;;;;27.87;41.43;96709.48;609772;232;67086;-66
2022/12/23 09:36:03;;;;;;;;;;;;;;;27.89;43.11;96707.26;610987;232;65070;-65
2022/12/23 09:38:30;;;;;;;;;;;;;;;27.89;41.41;96701.86;611101;232;67916;-66
2022/12/23 09:41:06;;;;;;;;;;;;;;;27.91;43.43;96696.94;611129;232;66658;-65
2022/12/23 09:43:50;;;;;;;;;;;;;;;27.91;43.92;96710.44;604006;232;65068;-66
2022/12/23 09:46:19;;;;;;;;;;;;;;;27.92;43.17;96706.61;605216;232;64937;-66
2022/12/23 09:48:47;;;;;;;;;;;;;;;27.90;43.45;96698.03;610734;232;65418;-66
2022/12/23 09:51:17;;;;;;;;;;;;;;;27.89;42.86;96701.86;609998;232;62922;-66
2022/12/23 09:53:52;;;;;;;;;;;;;;;27.88;43.44;96692.16;609807;232;67135;-64
2022/12/23 09:56:21;;;;;;;;;;;;;;;27.87;43.45;96696.77;610496;232;67101;-66
2022/12/23 09:58:57;;;;;;;;;;;;;;;27.88;44.34;96697.55;610593;231;65122;-65
2022/12/23 10:01:26;;;;;;;;;;;;;;;27.88;43.53;96695.67;609995;232;67281;-66
2022/12/23 10:04:04;;;;;;;;;;;;;;;27.89;43.01;96701.86;609683;232;67152;-66
2022/12/23 10:06:33;;;;;;;;;;;;;;;27.91;42.38;96702.34;609944;232;62919;-65
2022/12/23 10:09:02;;;;;;;;;;;;;;;27.90;43.70;96695.33;609741;232;66927;-65
2022/12/23 10:11:33;;;;;;;;;;;;;;;27.89;43.64;96691.06;610491;231;65195;-64
2022/12/23 10:14:02;;;;;;;;;;;;;;;27.89;44.84;96691.06;610267;232;63160;-65
2022/12/23 10:16:33;;;;;;;;;;;;;;;27.89;45.61;96696.45;610307;232;65184;-66
2022/12/23 10:19:08;;;;;;;;;;;;;;;27.89;44.44;96689.14;610327;232;66991;-68
2022/12/23 10:21:40;;;;;;;;;;;;;;;27.90;43.22;96684.53;610376;232;63006;-65
2022/12/23 10:24:12;;;;;;;;;;;;;;;27.91;43.30;96679.91;610290;232;66184;-66
2022/12/23 10:26:47;;;;;;;;;;;;;;;27.94;42.48;96680.08;610171;232;64602;-65
2022/12/23 10:29:19;;;;;;;;;;;;;;;27.96;40.34;96671.63;609017;232;65775;-64
2022/12/23 10:31:55;;;;;;;;;;;;;;;27.97;42.12;96668.63;608113;233;67309;-65
2022/12/23 10:34:24;;;;;;;;;;;;;;;27.97;43.75;96665.92;607941;233;67095;-66
2022/12/23 10:36:59;;;;;;;;;;;;;;;27.98;41.89;96656.69;608597;232;65038;-66
2022/12/23 10:39:28;;;;;;;;;;;;;;;28.00;41.54;96659.87;608498;231;67645;-65
2022/12/23 10:42:14;;;;;;;;;;;;;;;28.01;42.75;96664.14;602119;233;67139;-64
2022/12/23 10:44:46;;;;;;;;;;;;;;;28.02;39.71;96659.52;608753;233;65060;-64
2022/12/23 10:47:15;;;;;;;;;;;;;;;28.04;43.02;96658.08;608816;233;67208;-65
2022/12/23 10:49:44;;;;;;;;;;;;;;;28.04;41.92;96658.08;608783;233;67117;-65
2022/12/23 10:52:16;;;;;;;;;;;;;;;28.05;40.81;96656.20;608760;233;65115;-65
2022/12/23 10:54:45;;;;;;;;;;;;;;;28.05;42.44;96651.58;608703;233;64927;-65
2022/12/23 10:57:14;;;;;;;;;;;;;;;28.06;41.70;96658.55;608788;233;64961;-64
2022/12/23 10:59:42;;;;;;;;;;;;;;;28.07;41.87;96656.64;608783;233;65069;-64
2022/12/23 11:02:11;;;;;;;;;;;;;;;28.08;44.46;96658.25;608705;233;67331;-65
2022/12/23 11:04:39;;;;;;;;;;;;;;;28.08;42.01;96653.63;608139;232;67241;-67
2022/12/23 11:07:11;;;;;;;;;;;;;;;28.08;42.27;96655.55;608570;233;62926;-65
2022/12/23 11:09:40;;;;;;;;;;;;;;;28.09;42.19;96652.50;608616;232;67289;-65
2022/12/23 11:12:09;;;;;;;;;;;;;;;28.10;41.01;96650.59;608758;233;65730;-65
2022/12/23 11:14:38;;;;;;;;;;;;;;;28.10;41.91;96651.40;608369;233;65049;-63
2022/12/23 11:17:07;;;;;;;;;;;;;;;28.11;42.34;96649.48;608805;233;67131;-65
2022/12/23 11:19:35;;;;;;;;;;;;;;;28.16;42.34;96648.52;608148;232;64686;-65
2022/12/23 11:22:03;;;;;;;;;;;;;;;28.18;41.91;96648.95;607951;233;64987;-64
2022/12/23 11:24:32;;;;;;;;;;;;;;;28.19;43.17;96650.56;603885;233;70421;-65
2022/12/23 11:27:04;;;;;;;;;;;;;;;28.20;41.98;96649.43;608764;233;64951;-62
2022/12/23 11:29:37;;;;;;;;;;;;;;;28.22;41.20;96649.91;608422;233;65071;-64
2022/12/23 11:32:06;;;;;;;;;;;;;;;28.22;41.02;96649.91;608627;233;67456;-66
2022/12/23 11:34:36;;;;;;;;;;;;;;;28.20;44.88;96646.73;603629;233;66326;-66
2022/12/23 11:37:04;;;;;;;;;;;;;;;28.17;43.49;96652.79;602747;233;66223;-64
2022/12/23 11:39:33;;;;;;;;;;;;;;;28.16;44.81;96645.81;608184;233;67305;-67
2022/12/23 11:42:08;;;;;;;;;;;;;;;28.13;43.47;96647.25;608793;233;66952;-66
2022/12/23 11:44:40;;;;;;;;;;;;;;;28.11;44.86;96644.87;607273;231;65044;-66
2022/12/23 11:47:19;;;;;;;;;;;;;;;28.11;45.41;96647.57;607927;232;67226;-64
2022/12/23 11:49:50;;;;;;;;;;;;;;;28.10;45.35;96643.30;608802;233;64990;-63
2022/12/23 11:52:19;;;;;;;;;;;;;;;28.09;44.01;96644.39;608732;233;63147;-64
2022/12/23 11:54:54;;;;;;;;;;;;;;;28.09;38.44;96651.72;608652;233;67286;-65
2022/12/23 11:57:23;;;;;;;;;;;;;;;28.17;38.75;96650.09;608784;233;66925;-65
2022/12/23 11:59:54;;;;;;;;;;;;;;;28.19;44.76;96653.27;608565;232;42357;-65
2022/12/23 12:02:23;;;;;;;;;;;;;;;28.17;43.97;96652.79;608564;233;67228;-66
2022/12/23 12:05:02;;;;;;;;;;;;;;;28.16;43.30;96652.00;608582;232;67047;-65
2022/12/23 12:07:30;;;;;;;;;;;;;;;28.18;43.56;96652.45;608523;231;64940;-65
2022/12/23 12:09:59;;;;;;;;;;;;;;;28.17;43.56;96652.79;608809;233;65094;-66
2022/12/23 12:12:29;;;;;;;;;;;;;;;28.18;44.02;96646.25;608839;233;66860;-65
2022/12/23 12:14:59;;;;;;;;;;;;;;;28.17;44.62;96653.58;608673;233;65363;-64
2022/12/23 12:17:34;;;;;;;;;;;;;;;28.18;45.53;96651.66;608733;233;67461;-65
2022/12/23 12:20:06;;;;;;;;;;;;;;;28.19;43.90;96655.97;608755;233;67211;-66
2022/12/23 12:22:38;;;;;;;;;;;;;;;28.19;44.31;96650.56;608758;233;62965;-66
2022/12/23 12:25:07;;;;;;;;;;;;;;;28.20;43.19;96646.73;608783;233;68140;-66
2022/12/23 12:27:36;;;;;;;;;;;;;;;28.22;43.33;96655.30;608664;232;64871;-66
2022/12/23 12:30:06;;;;;;;;;;;;;;;28.22;43.30;96656.09;608738;233;65055;-66
2022/12/23 12:32:35;;;;;;;;;;;;;;;28.22;44.00;96660.71;608775;233;67236;-66
2022/12/23 12:35:04;;;;;;;;;;;;;;;28.22;43.12;96649.91;608729;233;66886;-66
2022/12/23 12:37:33;;;;;;;;;;;;;;;28.23;44.32;96663.06;608780;233;65767;-65
2022/12/23 12:40:03;;;;;;;;;;;;;;;28.24;43.61;96656.56;608836;233;66780;-65
2022/12/23 12:42:38;;;;;;;;;;;;;;;28.25;42.94;96657.35;608654;230;64573;-65
2022/12/23 12:45:06;;;;;;;;;;;;;;;28.24;44.81;96670.08;608757;233;65771;-65
2022/12/23 12:47:36;;;;;;;;;;;;;;;28.24;46.50;96664.67;608650;232;67256;-65
2022/12/23 12:50:05;;;;;;;;;;;;;;;28.24;44.37;96670.08;608739;233;64607;-65
2022/12/23 12:52:34;;;;;;;;;;;;;;;28.25;44.79;96665.45;608655;232;62921;-65
2022/12/23 12:55:03;;;;;;;;;;;;;;;28.26;42.79;96667.81;608791;233;66752;-65
2022/12/23 12:57:32;;;;;;;;;;;;;;;28.27;43.33;96663.23;608663;231;66647;-66
2022/12/23 13:00:01;;;;;;;;;;;;;;;28.27;43.37;96661.31;608710;233;62918;-65
2022/12/23 13:02:42;;;;;;;;;;;;;;;28.27;45.14;96655.13;608774;233;67316;-64
2022/12/23 13:05:14;;;;;;;;;;;;;;;28.27;45.79;96668.63;608464;232;66877;-63
2022/12/23 13:07:44;;;;;;;;;;;;;;;28.26;45.02;96659.70;608764;233;65012;-66
2022/12/23 13:10:16;;;;;;;;;;;;;;;28.26;44.20;96667.81;608734;233;67229;-67
2022/12/23 13:12:51;;;;;;;;;;;;;;;28.26;43.43;96662.41;608714;233;67332;-65
2022/12/23 13:15:29;;;;;;;;;;;;;;;28.29;43.90;96663.67;608119;233;62936;-65
2022/12/23 13:17:59;;;;;;;;;;;;;;;28.31;45.02;96672.25;608658;233;67307;-66
2022/12/23 13:20:34;;;;;;;;;;;;;;;28.31;43.18;96666.84;608750;230;48749;-66
2022/12/23 13:23:12;;;;;;;;;;;;;;;28.32;41.48;96663.83;608487;230;65088;-64
2022/12/23 13:25:41;;;;;;;;;;;;;;;28.36;43.07;96663.17;608525;232;67299;-65
2022/12/23 13:28:16;;;;;;;;;;;;;;;28.34;44.58;96664.27;608354;233;66777;-67